Time,TemperatureF,DewpointF,PressureIn,WindDirection,WindDirectionDegrees,WindSpeedMPH,WindSpeedGustMPH,Humidity,HourlyPrecipIn,Conditions,Clouds,dailyrainin,SolarRadiationWatts/m^2,SoftwareType,DateUTC
2013-03-11 00:02:00,42.0,35.0,-100.00,SW,223,6.0,9.0,77,0.00,,,0.00,0.000000,,2013-03-11 07:02:00,
2013-03-11 00:11:00,42.0,35.0,-100.00,SW,223,6.0,9.0,77,0.00,,,0.00,0.000000,,2013-03-11 07:11:00,
2013-03-11 00:32:00,42.0,36.0,-100.00,SW,222,6.0,12.0,78,0.00,,,0.00,0.000000,,2013-03-11 07:32:00,
2013-03-11 00:42:00,42.0,36.0,-100.00,SW,222,6.0,12.0,78,0.00,,,0.00,0.000000,,2013-03-11 07:42:00,
2013-03-11 00:52:00,42.0,36.0,-100.00,SW,222,6.0,12.0,78,0.00,,,0.00,0.000000,,2013-03-11 07:52:00,
2013-03-11 01:02:00,42.0,36.0,-100.00,SW,222,6.0,12.0,78,0.00,,,0.00,0.000000,,2013-03-11 08:02:00,
2013-03-11 01:11:00,42.0,36.0,-100.00,SW,222,6.0,12.0,78,0.00,,,0.00,0.000000,,2013-03-11 08:11:00,
2013-03-11 01:42:00,40.0,35.0,-100.00,WSW,245,4.0,10.0,81,0.00,,,0.00,0.000000,,2013-03-11 08:42:00,
2013-03-11 01:52:00,40.0,35.0,-100.00,WSW,245,4.0,10.0,81,0.00,,,0.00,0.000000,,2013-03-11 08:52:00,
2013-03-11 02:02:00,40.0,35.0,-100.00,WSW,245,4.0,10.0,81,0.00,,,0.00,0.000000,,2013-03-11 09:02:00,
2013-03-11 02:11:00,40.0,35.0,-100.00,WSW,245,4.0,10.0,81,0.00,,,0.00,0.000000,,2013-03-11 09:11:00,
2013-03-11 02:32:00,40.0,35.0,-100.00,SSW,212,6.0,10.0,81,0.00,,,0.00,0.000000,,2013-03-11 09:32:00,
2013-03-11 02:42:00,40.0,35.0,-100.00,SSW,212,6.0,10.0,81,0.00,,,0.00,0.000000,,2013-03-11 09:42:00,
2013-03-11 02:52:00,40.0,35.0,-100.00,SSW,212,6.0,10.0,81,0.00,,,0.00,0.000000,,2013-03-11 09:52:00,
2013-03-11 03:02:00,40.0,35.0,-100.00,SSW,212,6.0,10.0,81,0.00,,,0.00,0.000000,,2013-03-11 10:02:00,
2013-03-11 03:11:00,40.0,35.0,-100.00,SSW,212,6.0,10.0,81,0.00,,,0.00,0.000000,,2013-03-11 10:11:00,
2013-03-11 03:32:00,41.0,36.0,-100.00,SSW,201,7.0,9.0,82,0.00,,,0.00,0.000000,,2013-03-11 10:32:00,
2013-03-11 03:42:00,41.0,36.0,-100.00,SSW,201,7.0,9.0,82,0.00,,,0.00,0.000000,,2013-03-11 10:42:00,
2013-03-11 03:52:00,41.0,36.0,-100.00,SSW,201,7.0,9.0,82,0.00,,,0.00,0.000000,,2013-03-11 10:52:00,
2013-03-11 04:02:00,41.0,36.0,-100.00,SSW,201,7.0,9.0,82,0.00,,,0.00,0.000000,,2013-03-11 11:02:00,
2013-03-11 04:11:00,41.0,36.0,-100.00,SSW,201,7.0,9.0,82,0.00,,,0.00,0.000000,,2013-03-11 11:11:00,
2013-03-11 04:33:00,40.0,35.0,-100.00,SW,226,5.0,10.0,83,0.00,,,-99.99,0.000000,,2013-03-11 11:33:00,
2013-03-11 04:43:00,40.0,35.0,-100.00,SW,226,5.0,10.0,83,0.00,,,-99.99,0.000000,,2013-03-11 11:43:00,
2013-03-11 04:53:00,40.0,35.0,-100.00,SW,226,5.0,10.0,83,0.00,,,-99.99,0.000000,,2013-03-11 11:53:00,
2013-03-11 05:02:00,40.0,35.0,-100.00,SW,226,5.0,10.0,83,0.00,,,-99.99,0.000000,,2013-03-11 12:02:00,
2013-03-11 05:11:00,40.0,35.0,-100.00,SW,226,5.0,10.0,83,0.00,,,-99.99,0.000000,,2013-03-11 12:11:00,
2013-03-11 05:33:00,40.0,36.0,-100.00,SW,225,4.0,7.0,85,0.00,,,-99.99,0.000000,,2013-03-11 12:33:00,
2013-03-11 05:43:00,40.0,36.0,-100.00,SW,225,4.0,7.0,85,0.00,,,-99.99,0.000000,,2013-03-11 12:43:00,
2013-03-11 05:53:00,40.0,36.0,-100.00,SW,225,4.0,7.0,85,0.00,,,-99.99,0.000000,,2013-03-11 12:53:00,
2013-03-11 06:02:00,40.0,36.0,-100.00,SW,225,4.0,7.0,85,0.00,,,-99.99,0.000000,,2013-03-11 13:02:00,
2013-03-11 06:12:00,40.0,36.0,-100.00,SW,225,4.0,7.0,85,0.00,,,-99.99,0.000000,,2013-03-11 13:12:00,
2013-03-11 06:33:00,39.0,37.0,-100.00,South,187,6.0,11.0,92,0.00,,,0.00,0.000000,,2013-03-11 13:33:00,
2013-03-11 06:43:00,39.0,37.0,-100.00,South,187,6.0,11.0,92,0.00,,,0.00,0.000000,,2013-03-11 13:43:00,
2013-03-11 06:52:00,39.0,37.0,-100.00,South,187,6.0,11.0,92,0.00,,,0.00,0.000000,,2013-03-11 13:52:00,
2013-03-11 07:01:00,39.0,37.0,-100.00,South,187,6.0,11.0,92,0.00,,,0.00,0.000000,,2013-03-11 14:01:00,
2013-03-11 07:11:00,39.0,37.0,-100.00,South,187,6.0,11.0,92,0.00,,,0.00,0.000000,,2013-03-11 14:11:00,
2013-03-11 07:42:00,39.0,36.0,-100.00,WSW,237,4.0,8.0,90,0.00,,,0.00,0.000000,,2013-03-11 14:42:00,
2013-03-11 07:53:00,39.0,36.0,-100.00,WSW,237,4.0,8.0,90,0.00,,,0.00,0.000000,,2013-03-11 14:53:00,
2013-03-11 08:02:00,39.0,36.0,-100.00,WSW,237,4.0,8.0,90,0.00,,,0.00,0.000000,,2013-03-11 15:02:00,
2013-03-11 08:12:00,39.0,36.0,-100.00,WSW,237,4.0,8.0,90,0.00,,,0.00,0.000000,,2013-03-11 15:12:00,
2013-03-11 08:32:00,40.0,37.0,-100.00,WNW,283,1.0,8.0,88,0.00,,,0.00,34.000000,,2013-03-11 15:32:00,
2013-03-11 08:43:00,40.0,37.0,-100.00,WNW,283,1.0,8.0,88,0.00,,,0.00,34.000000,,2013-03-11 15:43:00,
2013-03-11 08:53:00,40.0,37.0,-100.00,WNW,283,1.0,8.0,88,0.00,,,0.00,34.000000,,2013-03-11 15:53:00,
2013-03-11 09:02:00,40.0,37.0,-100.00,WNW,283,1.0,8.0,88,0.00,,,0.00,34.000000,,2013-03-11 16:02:00,
2013-03-11 09:12:00,40.0,37.0,-100.00,WNW,283,1.0,8.0,88,0.00,,,0.00,34.000000,,2013-03-11 16:12:00,
2013-03-11 09:32:00,40.0,37.0,-100.00,North,7,3.0,4.0,89,0.00,,,0.00,74.000000,,2013-03-11 16:32:00,
2013-03-11 09:43:00,40.0,37.0,-100.00,North,7,3.0,4.0,89,0.00,,,0.00,74.000000,,2013-03-11 16:43:00,
2013-03-11 09:52:00,40.0,37.0,-100.00,North,7,3.0,4.0,89,0.00,,,0.00,74.000000,,2013-03-11 16:52:00,
2013-03-11 10:02:00,40.0,37.0,-100.00,North,7,3.0,4.0,89,0.00,,,0.00,74.000000,,2013-03-11 17:02:00,
2013-03-11 10:13:00,40.0,37.0,-100.00,North,7,3.0,4.0,89,0.00,,,0.00,74.000000,,2013-03-11 17:13:00,
2013-03-11 10:42:00,41.0,38.0,-100.00,North,5,2.0,6.0,89,0.00,,,-99.99,146.000000,,2013-03-11 17:42:00,
2013-03-11 10:53:00,41.0,38.0,-100.00,North,5,2.0,6.0,89,0.00,,,-99.99,146.000000,,2013-03-11 17:53:00,
2013-03-11 11:02:00,41.0,38.0,-100.00,North,5,2.0,6.0,89,0.00,,,-99.99,146.000000,,2013-03-11 18:02:00,
2013-03-11 11:11:00,41.0,38.0,-100.00,North,5,2.0,6.0,89,0.00,,,-99.99,146.000000,,2013-03-11 18:11:00,
2013-03-11 11:33:00,43.0,38.0,-100.00,North,10,4.0,6.0,84,0.00,,,0.00,214.000000,,2013-03-11 18:33:00,
2013-03-11 11:42:00,43.0,38.0,-100.00,North,10,4.0,6.0,84,0.00,,,0.00,214.000000,,2013-03-11 18:42:00,
2013-03-11 11:53:00,43.0,38.0,-100.00,North,10,4.0,6.0,84,0.00,,,0.00,214.000000,,2013-03-11 18:53:00,
2013-03-11 12:02:00,43.0,38.0,-100.00,North,10,4.0,6.0,84,0.00,,,0.00,214.000000,,2013-03-11 19:02:00,
2013-03-11 12:12:00,43.0,38.0,-100.00,North,10,4.0,6.0,84,0.00,,,0.00,214.000000,,2013-03-11 19:12:00,
2013-03-11 12:43:00,44.0,40.0,-100.00,WSW,243,3.0,6.0,85,0.00,,,0.00,194.000000,,2013-03-11 19:43:00,
2013-03-11 12:52:00,44.0,40.0,-100.00,WSW,243,3.0,6.0,85,0.00,,,0.00,194.000000,,2013-03-11 19:52:00,
2013-03-11 13:02:00,44.0,40.0,-100.00,WSW,243,3.0,6.0,85,0.00,,,0.00,194.000000,,2013-03-11 20:02:00,
2013-03-11 13:11:00,44.0,40.0,-100.00,WSW,243,3.0,6.0,85,0.00,,,0.00,194.000000,,2013-03-11 20:11:00,
2013-03-11 13:33:00,45.0,38.0,-100.00,NW,312,4.0,9.0,77,0.00,,,0.00,184.000000,,2013-03-11 20:33:00,
2013-03-11 13:44:00,45.0,38.0,-100.00,NW,312,4.0,9.0,77,0.00,,,0.00,184.000000,,2013-03-11 20:44:00,
2013-03-11 13:53:00,45.0,38.0,-100.00,NW,312,4.0,9.0,77,0.00,,,0.00,184.000000,,2013-03-11 20:53:00,
2013-03-11 14:02:00,45.0,38.0,-100.00,NW,312,4.0,9.0,77,0.00,,,0.00,184.000000,,2013-03-11 21:02:00,
2013-03-11 14:12:00,45.0,38.0,-100.00,NW,312,4.0,9.0,77,0.00,,,0.00,184.000000,,2013-03-11 21:12:00,
2013-03-11 14:33:00,46.0,37.0,-100.00,WSW,243,7.0,14.0,71,0.00,,,0.00,229.000000,,2013-03-11 21:33:00,
2013-03-11 14:44:00,46.0,37.0,-100.00,WSW,243,7.0,14.0,71,0.00,,,0.00,229.000000,,2013-03-11 21:44:00,
2013-03-11 14:53:00,46.0,37.0,-100.00,WSW,243,7.0,14.0,71,0.00,,,0.00,229.000000,,2013-03-11 21:53:00,
2013-03-11 15:02:00,46.0,37.0,-100.00,WSW,243,7.0,14.0,71,0.00,,,0.00,229.000000,,2013-03-11 22:02:00,
2013-03-11 15:12:00,46.0,37.0,-100.00,WSW,243,7.0,14.0,71,0.00,,,0.00,229.000000,,2013-03-11 22:12:00,
2013-03-11 15:32:00,46.0,39.0,-100.00,WSW,258,6.0,12.0,75,0.00,,,0.00,168.000000,,2013-03-11 22:32:00,
2013-03-11 15:43:00,46.0,39.0,-100.00,WSW,258,6.0,12.0,75,0.00,,,0.00,168.000000,,2013-03-11 22:43:00,
2013-03-11 15:53:00,46.0,39.0,-100.00,WSW,258,6.0,12.0,75,0.00,,,0.00,168.000000,,2013-03-11 22:53:00,
2013-03-11 16:02:00,46.0,39.0,-100.00,WSW,258,6.0,12.0,75,0.00,,,0.00,168.000000,,2013-03-11 23:02:00,
2013-03-11 16:12:00,46.0,39.0,-100.00,WSW,258,6.0,12.0,75,0.00,,,0.00,168.000000,,2013-03-11 23:12:00,
2013-03-11 16:33:00,46.0,38.0,-100.00,West,269,7.0,12.0,73,0.00,,,0.00,151.000000,,2013-03-11 23:33:00,
2013-03-11 16:43:00,46.0,38.0,-100.00,West,269,7.0,12.0,73,0.00,,,0.00,151.000000,,2013-03-11 23:43:00,
2013-03-11 16:53:00,46.0,38.0,-100.00,West,269,7.0,12.0,73,0.00,,,0.00,151.000000,,2013-03-11 23:53:00,
2013-03-11 17:02:00,46.0,38.0,-100.00,West,269,7.0,12.0,73,0.00,,,0.00,151.000000,,2013-03-12 00:02:00,
2013-03-11 17:12:00,46.0,38.0,-100.00,West,269,7.0,12.0,73,0.00,,,0.00,151.000000,,2013-03-12 00:12:00,
2013-03-11 17:33:00,47.0,38.0,-100.00,WSW,251,6.0,11.0,70,0.00,,,-99.99,206.000000,,2013-03-12 00:33:00,
2013-03-11 17:43:00,47.0,38.0,-100.00,WSW,251,6.0,11.0,70,0.00,,,-99.99,206.000000,,2013-03-12 00:43:00,
2013-03-11 17:53:00,47.0,38.0,-100.00,WSW,251,6.0,11.0,70,0.00,,,-99.99,206.000000,,2013-03-12 00:53:00,
2013-03-11 18:02:00,47.0,38.0,-100.00,WSW,251,6.0,11.0,70,0.00,,,-99.99,206.000000,,2013-03-12 01:02:00,
2013-03-11 18:11:00,47.0,38.0,-100.00,WSW,251,6.0,11.0,70,0.00,,,-99.99,206.000000,,2013-03-12 01:11:00,
2013-03-11 18:33:00,46.0,37.0,-100.00,WSW,247,5.0,10.0,72,0.00,,,0.00,113.000000,,2013-03-12 01:33:00,
2013-03-11 18:42:00,46.0,37.0,-100.00,WSW,247,5.0,10.0,72,0.00,,,0.00,113.000000,,2013-03-12 01:42:00,
2013-03-11 18:52:00,46.0,37.0,-100.00,WSW,247,5.0,10.0,72,0.00,,,0.00,113.000000,,2013-03-12 01:52:00,
2013-03-11 19:02:00,46.0,37.0,-100.00,WSW,247,5.0,10.0,72,0.00,,,0.00,113.000000,,2013-03-12 02:02:00,
2013-03-11 19:12:00,46.0,37.0,-100.00,WSW,247,5.0,10.0,72,0.00,,,0.00,113.000000,,2013-03-12 02:12:00,
2013-03-11 19:32:00,44.0,37.0,-100.00,SW,215,4.0,7.0,75,0.00,,,0.00,38.000000,,2013-03-12 02:32:00,
2013-03-11 19:43:00,44.0,37.0,-100.00,SW,215,4.0,7.0,75,0.00,,,0.00,38.000000,,2013-03-12 02:43:00,
2013-03-11 19:52:00,44.0,37.0,-100.00,SW,215,4.0,7.0,75,0.00,,,0.00,38.000000,,2013-03-12 02:52:00,
2013-03-11 20:02:00,44.0,37.0,-100.00,SW,215,4.0,7.0,75,0.00,,,0.00,38.000000,,2013-03-12 03:02:00,
2013-03-11 20:12:00,44.0,37.0,-100.00,SW,215,4.0,7.0,75,0.00,,,0.00,38.000000,,2013-03-12 03:12:00,
2013-03-11 20:42:00,44.0,37.0,-100.00,SW,222,5.0,8.0,77,0.00,,,0.00,0.000000,,2013-03-12 03:42:00,
2013-03-11 20:52:00,44.0,37.0,-100.00,SW,222,5.0,8.0,77,0.00,,,0.00,0.000000,,2013-03-12 03:52:00,
2013-03-11 21:02:00,44.0,37.0,-100.00,SW,222,5.0,8.0,77,0.00,,,0.00,0.000000,,2013-03-12 04:02:00,
2013-03-11 21:12:00,44.0,37.0,-100.00,SW,222,5.0,8.0,77,0.00,,,0.00,0.000000,,2013-03-12 04:12:00,
2013-03-11 21:32:00,44.0,38.0,-100.00,SW,221,6.0,11.0,78,0.00,,,0.00,0.000000,,2013-03-12 04:32:00,
2013-03-11 21:43:00,44.0,38.0,-100.00,SW,221,6.0,11.0,78,0.00,,,0.00,0.000000,,2013-03-12 04:43:00,
2013-03-11 21:52:00,44.0,38.0,-100.00,SW,221,6.0,11.0,78,0.00,,,0.00,0.000000,,2013-03-12 04:52:00,
2013-03-11 22:02:00,44.0,38.0,-100.00,SW,221,6.0,11.0,78,0.00,,,0.00,0.000000,,2013-03-12 05:02:00,
2013-03-11 22:11:00,44.0,38.0,-100.00,SW,221,6.0,11.0,78,0.00,,,0.00,0.000000,,2013-03-12 05:11:00,
2013-03-11 22:32:00,42.0,37.0,-100.00,South,179,6.0,10.0,81,0.00,,,0.00,0.000000,,2013-03-12 05:32:00,
2013-03-11 22:42:00,42.0,37.0,-100.00,South,179,6.0,10.0,81,0.00,,,0.00,0.000000,,2013-03-12 05:42:00,
2013-03-11 22:52:00,42.0,37.0,-100.00,South,179,6.0,10.0,81,0.00,,,0.00,0.000000,,2013-03-12 05:52:00,
2013-03-11 23:02:00,42.0,37.0,-100.00,South,179,6.0,10.0,81,0.00,,,0.00,0.000000,,2013-03-12 06:02:00,
2013-03-11 23:11:00,42.0,37.0,-100.00,South,179,6.0,10.0,81,0.00,,,0.00,0.000000,,2013-03-12 06:11:00,
2013-03-11 23:32:00,43.0,37.0,-100.00,South,179,5.0,7.0,79,0.00,,,0.00,0.000000,,2013-03-12 06:32:00,
2013-03-11 23:42:00,43.0,37.0,-100.00,South,179,5.0,7.0,79,0.00,,,0.00,0.000000,,2013-03-12 06:42:00,
2013-03-11 23:52:00,43.0,37.0,-100.00,South,179,5.0,7.0,79,0.00,,,0.00,0.000000,,2013-03-12 06:52:00,